sensor_id;sensor_type;location;lat;lon;timestamp;pressure;altitude;pressure_sealevel;temperature;humidity
21817;BME280;13247;47.504;7.382;2023-05-29T00:00:17;97164.03;;;13.57;100.00
21817;BME280;13247;47.504;7.382;2023-05-29T00:03:02;97167.53;;;13.58;100.00
21817;BME280;13247;47.504;7.382;2023-05-29T00:05:52;97168.13;;;13.44;100.00
21817;BME280;13247;47.504;7.382;2023-05-29T00:08:37;97175.56;;;13.16;100.00
21817;BME280;13247;47.504;7.382;2023-05-29T00:11:21;97170.63;;;13.08;100.00
21817;BME280;13247;47.504;7.382;2023-05-29T00:14:07;97168.72;;;13.12;100.00
21817;BME280;13247;47.504;7.382;2023-05-29T00:16:51;97164.41;;;13.29;100.00
21817;BME280;13247;47.504;7.382;2023-05-29T00:19:37;97167.44;;;13.41;100.00
21817;BME280;13247;47.504;7.382;2023-05-29T00:22:21;97164.50;;;13.28;100.00
21817;BME280;13247;47.504;7.382;2023-05-29T00:25:06;97165.25;;;13.11;100.00
21817;BME280;13247;47.504;7.382;2023-05-29T00:27:51;97171.78;;;13.01;100.00
21817;BME280;13247;47.504;7.382;2023-05-29T00:30:36;97169.56;;;12.92;100.00
21817;BME280;13247;47.504;7.382;2023-05-29T00:33:21;97170.59;;;12.68;100.00
21817;BME280;13247;47.504;7.382;2023-05-29T00:36:05;97173.88;;;12.53;100.00
21817;BME280;13247;47.504;7.382;2023-05-29T00:38:53;97176.34;;;12.78;100.00
21817;BME280;13247;47.504;7.382;2023-05-29T00:41:37;97176.22;;;13.01;100.00
21817;BME280;13247;47.504;7.382;2023-05-29T00:44:23;97172.72;;;13.00;100.00
21817;BME280;13247;47.504;7.382;2023-05-29T00:47:08;97167.91;;;12.90;100.00
21817;BME280;13247;47.504;7.382;2023-05-29T00:49:55;97179.22;;;12.92;100.00
21817;BME280;13247;47.504;7.382;2023-05-29T00:52:41;97180.75;;;12.77;100.00
21817;BME280;13247;47.504;7.382;2023-05-29T00:55:29;97181.47;;;12.81;100.00
21817;BME280;13247;47.504;7.382;2023-05-29T00:58:14;97180.66;;;12.79;100.00
21817;BME280;13247;47.504;7.382;2023-05-29T01:00:59;97178.75;;;12.82;100.00
21817;BME280;13247;47.504;7.382;2023-05-29T01:03:45;97170.75;;;13.05;100.00
21817;BME280;13247;47.504;7.382;2023-05-29T01:06:33;97171.59;;;12.86;100.00
21817;BME280;13247;47.504;7.382;2023-05-29T01:09:18;97172.31;;;12.69;100.00
21817;BME280;13247;47.504;7.382;2023-05-29T01:13:36;97167.97;;;12.48;100.00
21817;BME280;13247;47.504;7.382;2023-05-29T01:15:58;97176.28;;;12.37;100.00
21817;BME280;13247;47.504;7.382;2023-05-29T01:22:13;97180.97;;;12.51;100.00
21817;BME280;13247;47.504;7.382;2023-05-29T01:28:11;97179.81;;;12.58;100.00
21817;BME280;13247;47.504;7.382;2023-05-29T01:30:57;97180.81;;;12.34;100.00
21817;BME280;13247;47.504;7.382;2023-05-29T01:33:55;97177.75;;;12.23;100.00
21817;BME280;13247;47.504;7.382;2023-05-29T01:36:40;97179.03;;;12.13;100.00
21817;BME280;13247;47.504;7.382;2023-05-29T01:39:26;97177.63;;;12.26;100.00
21817;BME280;13247;47.504;7.382;2023-05-29T01:42:12;97182.25;;;11.98;100.00
21817;BME280;13247;47.504;7.382;2023-05-29T01:44:58;97178.84;;;11.96;100.00
21817;BME280;13247;47.504;7.382;2023-05-29T01:47:43;97181.81;;;12.10;100.00
21817;BME280;13247;47.504;7.382;2023-05-29T01:50:29;97185.69;;;12.00;100.00
21817;BME280;13247;47.504;7.382;2023-05-29T01:53:15;97180.63;;;11.95;100.00
21817;BME280;13247;47.504;7.382;2023-05-29T01:56:00;97179.69;;;11.74;100.00
21817;BME280;13247;47.504;7.382;2023-05-29T01:58:45;97185.28;;;11.65;100.00
21817;BME280;13247;47.504;7.382;2023-05-29T02:01:31;97180.03;;;11.65;100.00
21817;BME280;13247;47.504;7.382;2023-05-29T02:04:17;97182.06;;;11.57;100.00
21817;BME280;13247;47.504;7.382;2023-05-29T02:07:01;97177.34;;;11.67;100.00
21817;BME280;13247;47.504;7.382;2023-05-29T02:09:46;97170.72;;;11.57;100.00
21817;BME280;13247;47.504;7.382;2023-05-29T02:12:31;97180.53;;;11.75;100.00
21817;BME280;13247;47.504;7.382;2023-05-29T02:15:16;97176.63;;;11.62;100.00
21817;BME280;13247;47.504;7.382;2023-05-29T02:18:01;97175.84;;;11.60;100.00
21817;BME280;13247;47.504;7.382;2023-05-29T02:20:45;97173.81;;;11.68;100.00
21817;BME280;13247;47.504;7.382;2023-05-29T02:23:30;97169.13;;;11.53;100.00
21817;BME280;13247;47.504;7.382;2023-05-29T02:26:15;97176.88;;;11.79;100.00
21817;BME280;13247;47.504;7.382;2023-05-29T02:29:00;97170.59;;;11.60;100.00
21817;BME280;13247;47.504;7.382;2023-05-29T02:31:45;97175.34;;;11.27;100.00
21817;BME280;13247;47.504;7.382;2023-05-29T02:34:29;97175.09;;;11.56;100.00
21817;BME280;13247;47.504;7.382;2023-05-29T02:37:14;97180.19;;;11.61;100.00
21817;BME280;13247;47.504;7.382;2023-05-29T02:39:58;97180.28;;;11.35;100.00
21817;BME280;13247;47.504;7.382;2023-05-29T02:42:43;97182.69;;;11.64;100.00
21817;BME280;13247;47.504;7.382;2023-05-29T02:45:28;97181.16;;;11.58;100.00
21817;BME280;13247;47.504;7.382;2023-05-29T02:48:12;97176.88;;;11.56;100.00
21817;BME280;13247;47.504;7.382;2023-05-29T02:50:57;97180.59;;;11.50;100.00
21817;BME280;13247;47.504;7.382;2023-05-29T02:53:41;97184.69;;;11.34;100.00
21817;BME280;13247;47.504;7.382;2023-05-29T02:56:26;97178.19;;;11.21;100.00
21817;BME280;13247;47.504;7.382;2023-05-29T02:59:11;97180.97;;;11.17;100.00
21817;BME280;13247;47.504;7.382;2023-05-29T03:01:55;97191.34;;;11.20;100.00
21817;BME280;13247;47.504;7.382;2023-05-29T03:04:40;97184.81;;;11.31;100.00
21817;BME280;13247;47.504;7.382;2023-05-29T03:07:25;97189.03;;;11.35;100.00
21817;BME280;13247;47.504;7.382;2023-05-29T03:10:10;97183.88;;;11.32;100.00
21817;BME280;13247;47.504;7.382;2023-05-29T03:12:54;97179.72;;;11.27;100.00
21817;BME280;13247;47.504;7.382;2023-05-29T03:15:40;97175.81;;;11.38;100.00
21817;BME280;13247;47.504;7.382;2023-05-29T03:18:24;97183.47;;;11.43;100.00
21817;BME280;13247;47.504;7.382;2023-05-29T03:21:09;97180.75;;;11.23;100.00
21817;BME280;13247;47.504;7.382;2023-05-29T03:23:53;97174.75;;;11.19;100.00
21817;BME280;13247;47.504;7.382;2023-05-29T03:26:38;97175.50;;;11.23;100.00
21817;BME280;13247;47.504;7.382;2023-05-29T03:29:22;97187.84;;;10.96;100.00
21817;BME280;13247;47.504;7.382;2023-05-29T03:32:07;97179.50;;;10.85;100.00
21817;BME280;13247;47.504;7.382;2023-05-29T03:34:52;97189.19;;;10.83;100.00
21817;BME280;13247;47.504;7.382;2023-05-29T03:37:36;97184.63;;;10.88;100.00
21817;BME280;13247;47.504;7.382;2023-05-29T03:40:21;97182.38;;;11.02;100.00
21817;BME280;13247;47.504;7.382;2023-05-29T03:43:06;97179.16;;;10.94;100.00
21817;BME280;13247;47.504;7.382;2023-05-29T03:45:50;97180.22;;;10.88;100.00
21817;BME280;13247;47.504;7.382;2023-05-29T03:48:35;97186.81;;;10.75;100.00
21817;BME280;13247;47.504;7.382;2023-05-29T03:51:19;97187.59;;;10.77;100.00
21817;BME280;13247;47.504;7.382;2023-05-29T03:54:04;97190.41;;;10.97;100.00
21817;BME280;13247;47.504;7.382;2023-05-29T03:56:49;97182.50;;;10.73;100.00
21817;BME280;13247;47.504;7.382;2023-05-29T03:59:34;97188.41;;;10.79;100.00
21817;BME280;13247;47.504;7.382;2023-05-29T04:02:18;97193.22;;;10.67;100.00
21817;BME280;13247;47.504;7.382;2023-05-29T04:05:05;97187.22;;;10.63;100.00
21817;BME280;13247;47.504;7.382;2023-05-29T04:07:51;97195.41;;;10.54;100.00
21817;BME280;13247;47.504;7.382;2023-05-29T04:10:36;97194.28;;;10.61;100.00
21817;BME280;13247;47.504;7.382;2023-05-29T04:13:21;97203.97;;;10.59;100.00
21817;BME280;13247;47.504;7.382;2023-05-29T04:16:06;97197.78;;;10.86;100.00
21817;BME280;13247;47.504;7.382;2023-05-29T04:18:51;97206.69;;;10.82;100.00
21817;BME280;13247;47.504;7.382;2023-05-29T04:21:35;97208.72;;;10.74;100.00
21817;BME280;13247;47.504;7.382;2023-05-29T04:24:20;97215.00;;;10.69;100.00
21817;BME280;13247;47.504;7.382;2023-05-29T04:27:04;97215.72;;;10.74;100.00
21817;BME280;13247;47.504;7.382;2023-05-29T04:29:49;97221.91;;;10.71;100.00
21817;BME280;13247;47.504;7.382;2023-05-29T04:32:34;97226.59;;;10.88;100.00
21817;BME280;13247;47.504;7.382;2023-05-29T04:35:19;97219.94;;;10.78;100.00
21817;BME280;13247;47.504;7.382;2023-05-29T04:38:04;97231.66;;;10.68;100.00
21817;BME280;13247;47.504;7.382;2023-05-29T04:40:52;97229.72;;;10.73;100.00
21817;BME280;13247;47.504;7.382;2023-05-29T04:43:36;97234.28;;;10.68;100.00
21817;BME280;13247;47.504;7.382;2023-05-29T04:46:25;97232.69;;;10.88;100.00
21817;BME280;13247;47.504;7.382;2023-05-29T04:49:11;97230.50;;;11.01;100.00
21817;BME280;13247;47.504;7.382;2023-05-29T04:51:57;97237.13;;;11.13;100.00
21817;BME280;13247;47.504;7.382;2023-05-29T04:54:44;97239.22;;;11.26;100.00
21817;BME280;13247;47.504;7.382;2023-05-29T04:57:29;97244.44;;;11.28;100.00
21817;BME280;13247;47.504;7.382;2023-05-29T05:00:14;97245.03;;;11.36;100.00
21817;BME280;13247;47.504;7.382;2023-05-29T05:02:59;97249.09;;;11.44;100.00
21817;BME280;13247;47.504;7.382;2023-05-29T05:05:43;97247.81;;;11.31;100.00
21817;BME280;13247;47.504;7.382;2023-05-29T05:08:29;97259.47;;;11.47;100.00
21817;BME280;13247;47.504;7.382;2023-05-29T05:11:14;97247.69;;;11.59;100.00
21817;BME280;13247;47.504;7.382;2023-05-29T05:14:00;97256.41;;;11.59;100.00
21817;BME280;13247;47.504;7.382;2023-05-29T05:16:44;97256.44;;;11.58;100.00
21817;BME280;13247;47.504;7.382;2023-05-29T05:19:29;97244.88;;;11.63;100.00
21817;BME280;13247;47.504;7.382;2023-05-29T05:22:15;97247.19;;;11.72;100.00
21817;BME280;13247;47.504;7.382;2023-05-29T05:25:00;97260.84;;;11.82;100.00
21817;BME280;13247;47.504;7.382;2023-05-29T05:27:45;97256.88;;;11.94;100.00
21817;BME280;13247;47.504;7.382;2023-05-29T05:30:30;97252.81;;;12.08;100.00
21817;BME280;13247;47.504;7.382;2023-05-29T05:33:15;97258.50;;;12.19;100.00
21817;BME280;13247;47.504;7.382;2023-05-29T05:35:59;97258.16;;;12.28;100.00
21817;BME280;13247;47.504;7.382;2023-05-29T05:38:45;97261.09;;;12.64;100.00
21817;BME280;13247;47.504;7.382;2023-05-29T05:41:30;97260.94;;;12.89;100.00
21817;BME280;13247;47.504;7.382;2023-05-29T05:44:15;97259.88;;;12.93;100.00
21817;BME280;13247;47.504;7.382;2023-05-29T05:46:59;97269.22;;;12.80;100.00
21817;BME280;13247;47.504;7.382;2023-05-29T05:49:43;97265.84;;;12.76;100.00
21817;BME280;13247;47.504;7.382;2023-05-29T05:52:29;97260.34;;;12.82;100.00
21817;BME280;13247;47.504;7.382;2023-05-29T05:55:17;97259.63;;;12.99;100.00
21817;BME280;13247;47.504;7.382;2023-05-29T05:58:01;97266.34;;;13.27;100.00
21817;BME280;13247;47.504;7.382;2023-05-29T06:00:46;97273.19;;;13.31;100.00
21817;BME280;13247;47.504;7.382;2023-05-29T06:03:30;97273.19;;;13.31;100.00
21817;BME280;13247;47.504;7.382;2023-05-29T06:06:17;97269.41;;;13.37;100.00
21817;BME280;13247;47.504;7.382;2023-05-29T06:09:02;97266.69;;;13.59;100.00
21817;BME280;13247;47.504;7.382;2023-05-29T06:11:48;97271.25;;;13.94;100.00
21817;BME280;13247;47.504;7.382;2023-05-29T06:14:33;97267.28;;;14.04;100.00
21817;BME280;13247;47.504;7.382;2023-05-29T06:17:17;97269.84;;;14.24;100.00
21817;BME280;13247;47.504;7.382;2023-05-29T06:20:02;97266.81;;;14.33;100.00
21817;BME280;13247;47.504;7.382;2023-05-29T06:22:53;97263.91;;;14.56;100.00
21817;BME280;13247;47.504;7.382;2023-05-29T06:25:37;97261.19;;;14.58;100.00
21817;BME280;13247;47.504;7.382;2023-05-29T06:28:22;97265.81;;;14.71;100.00
21817;BME280;13247;47.504;7.382;2023-05-29T06:31:07;97265.06;;;14.86;100.00
21817;BME280;13247;47.504;7.382;2023-05-29T06:33:52;97260.03;;;14.99;100.00
21817;BME280;13247;47.504;7.382;2023-05-29T06:36:36;97266.09;;;15.18;100.00
21817;BME280;13247;47.504;7.382;2023-05-29T06:39:21;97265.38;;;15.15;100.00
21817;BME280;13247;47.504;7.382;2023-05-29T06:42:06;97264.06;;;15.23;100.00
21817;BME280;13247;47.504;7.382;2023-05-29T06:44:50;97272.09;;;15.39;100.00
21817;BME280;13247;47.504;7.382;2023-05-29T06:47:35;97269.50;;;15.54;100.00
21817;BME280;13247;47.504;7.382;2023-05-29T06:50:19;97263.53;;;15.68;100.00
21817;BME280;13247;47.504;7.382;2023-05-29T06:53:04;97269.25;;;15.76;100.00
21817;BME280;13247;47.504;7.382;2023-05-29T06:55:49;97271.56;;;15.82;100.00
21817;BME280;13247;47.504;7.382;2023-05-29T06:58:34;97267.53;;;16.08;100.00
21817;BME280;13247;47.504;7.382;2023-05-29T07:01:19;97268.31;;;16.10;100.00
21817;BME280;13247;47.504;7.382;2023-05-29T07:04:04;97275.31;;;16.11;100.00
21817;BME280;13247;47.504;7.382;2023-05-29T07:06:49;97277.91;;;16.28;100.00
21817;BME280;13247;47.504;7.382;2023-05-29T07:09:33;97283.28;;;16.42;100.00
21817;BME280;13247;47.504;7.382;2023-05-29T07:12:19;97277.31;;;16.54;100.00
21817;BME280;13247;47.504;7.382;2023-05-29T07:15:04;97285.69;;;16.62;100.00
21817;BME280;13247;47.504;7.382;2023-05-29T07:17:48;97282.72;;;16.68;100.00
21817;BME280;13247;47.504;7.382;2023-05-29T07:20:33;97280.19;;;16.96;100.00
21817;BME280;13247;47.504;7.382;2023-05-29T07:23:17;97272.53;;;17.21;100.00
21817;BME280;13247;47.504;7.382;2023-05-29T07:26:02;97275.00;;;17.24;100.00
21817;BME280;13247;47.504;7.382;2023-05-29T07:28:47;97268.13;;;17.36;100.00
21817;BME280;13247;47.504;7.382;2023-05-29T07:31:31;97264.97;;;17.59;100.00
21817;BME280;13247;47.504;7.382;2023-05-29T07:34:16;97273.13;;;17.70;100.00
21817;BME280;13247;47.504;7.382;2023-05-29T07:37:03;97273.06;;;17.72;100.00
21817;BME280;13247;47.504;7.382;2023-05-29T07:39:48;97283.31;;;17.92;100.00
21817;BME280;13247;47.504;7.382;2023-05-29T07:42:33;97274.28;;;17.80;100.00
21817;BME280;13247;47.504;7.382;2023-05-29T07:45:18;97282.28;;;17.94;100.00
21817;BME280;13247;47.504;7.382;2023-05-29T07:48:02;97283.69;;;17.86;100.00
21817;BME280;13247;47.504;7.382;2023-05-29T07:50:47;97278.28;;;18.16;100.00
21817;BME280;13247;47.504;7.382;2023-05-29T07:53:32;97284.75;;;18.12;98.96
21817;BME280;13247;47.504;7.382;2023-05-29T07:56:17;97292.09;;;18.21;97.01
21817;BME280;13247;47.504;7.382;2023-05-29T07:59:02;97285.88;;;18.22;96.55
21817;BME280;13247;47.504;7.382;2023-05-29T08:01:47;97283.50;;;18.45;95.29
21817;BME280;13247;47.504;7.382;2023-05-29T08:04:32;97286.66;;;18.78;95.30
21817;BME280;13247;47.504;7.382;2023-05-29T08:07:17;97291.72;;;18.69;92.91
21817;BME280;13247;47.504;7.382;2023-05-29T08:10:02;97289.25;;;18.93;86.62
21817;BME280;13247;47.504;7.382;2023-05-29T08:12:47;97286.91;;;18.88;93.45
21817;BME280;13247;47.504;7.382;2023-05-29T08:15:33;97280.47;;;18.92;87.63
21817;BME280;13247;47.504;7.382;2023-05-29T08:18:18;97281.66;;;19.01;88.31
21817;BME280;13247;47.504;7.382;2023-05-29T08:21:03;97275.63;;;19.38;80.75
21817;BME280;13247;47.504;7.382;2023-05-29T08:23:48;97278.88;;;19.68;80.22
21817;BME280;13247;47.504;7.382;2023-05-29T08:26:34;97283.34;;;19.68;81.58
21817;BME280;13247;47.504;7.382;2023-05-29T08:29:19;97281.59;;;19.41;73.00
21817;BME280;13247;47.504;7.382;2023-05-29T08:32:04;97289.09;;;19.62;79.22
21817;BME280;13247;47.504;7.382;2023-05-29T08:34:49;97275.41;;;19.53;78.96
21817;BME280;13247;47.504;7.382;2023-05-29T08:37:34;97282.72;;;19.77;78.58
21817;BME280;13247;47.504;7.382;2023-05-29T08:40:20;97279.31;;;20.38;81.50
21817;BME280;13247;47.504;7.382;2023-05-29T08:43:15;97282.81;;;20.51;73.78
21817;BME280;13247;47.504;7.382;2023-05-29T08:46:03;97278.97;;;20.17;69.54
21817;BME280;13247;47.504;7.382;2023-05-29T08:48:49;97279.66;;;20.69;68.44
21817;BME280;13247;47.504;7.382;2023-05-29T08:51:38;97276.72;;;20.61;72.95
21817;BME280;13247;47.504;7.382;2023-05-29T08:54:25;97280.47;;;20.46;66.80
21817;BME280;13247;47.504;7.382;2023-05-29T08:57:11;97282.44;;;20.55;66.90
21817;BME280;13247;47.504;7.382;2023-05-29T08:59:57;97288.09;;;20.87;65.01
21817;BME280;13247;47.504;7.382;2023-05-29T09:02:43;97285.31;;;20.65;66.91
21817;BME280;13247;47.504;7.382;2023-05-29T09:05:30;97291.09;;;20.59;63.77
21817;BME280;13247;47.504;7.382;2023-05-29T09:08:16;97297.50;;;20.56;64.26
21817;BME280;13247;47.504;7.382;2023-05-29T09:11:01;97295.66;;;20.69;64.36
21817;BME280;13247;47.504;7.382;2023-05-29T09:13:47;97289.09;;;21.22;62.99
21817;BME280;13247;47.504;7.382;2023-05-29T09:16:31;97298.16;;;21.20;62.75
21817;BME280;13247;47.504;7.382;2023-05-29T09:19:16;97303.91;;;20.90;62.63
21817;BME280;13247;47.504;7.382;2023-05-29T09:22:03;97300.16;;;20.56;63.98
21817;BME280;13247;47.504;7.382;2023-05-29T09:24:49;97295.47;;;20.47;65.08
21817;BME280;13247;47.504;7.382;2023-05-29T09:27:39;97296.63;;;21.04;62.41
21817;BME280;13247;47.504;7.382;2023-05-29T09:30:41;97280.22;;;21.22;60.83
21817;BME280;13247;47.504;7.382;2023-05-29T09:33:26;97275.56;;;21.71;59.40
21817;BME280;13247;47.504;7.382;2023-05-29T09:36:20;97279.41;;;21.32;61.16
21817;BME280;13247;47.504;7.382;2023-05-29T09:39:06;97280.66;;;21.39;58.43
21817;BME280;13247;47.504;7.382;2023-05-29T09:41:54;97284.84;;;21.89;59.21
21817;BME280;13247;47.504;7.382;2023-05-29T09:44:45;97279.38;;;21.91;56.64
21817;BME280;13247;47.504;7.382;2023-05-29T09:47:34;97283.78;;;22.03;55.23
21817;BME280;13247;47.504;7.382;2023-05-29T09:50:20;97281.03;;;22.59;56.26
21817;BME280;13247;47.504;7.382;2023-05-29T09:53:18;97273.28;;;23.10;52.07
21817;BME280;13247;47.504;7.382;2023-05-29T09:56:04;97268.97;;;22.43;56.45
21817;BME280;13247;47.504;7.382;2023-05-29T09:58:50;97265.72;;;23.04;53.16
21817;BME280;13247;47.504;7.382;2023-05-29T10:01:36;97266.44;;;23.49;50.62
21817;BME280;13247;47.504;7.382;2023-05-29T10:04:23;97267.63;;;22.71;52.99
21817;BME280;13247;47.504;7.382;2023-05-29T10:07:28;97267.38;;;22.74;50.11
21817;BME280;13247;47.504;7.382;2023-05-29T10:10:17;97264.22;;;22.46;51.26
21817;BME280;13247;47.504;7.382;2023-05-29T10:13:03;97256.22;;;22.24;52.17
21817;BME280;13247;47.504;7.382;2023-05-29T10:15:51;97259.84;;;22.79;52.50
21817;BME280;13247;47.504;7.382;2023-05-29T10:18:42;97252.44;;;23.57;48.59
21817;BME280;13247;47.504;7.382;2023-05-29T10:21:28;97248.56;;;23.50;47.29
21817;BME280;13247;47.504;7.382;2023-05-29T10:24:13;97247.41;;;23.00;50.87
21817;BME280;13247;47.504;7.382;2023-05-29T10:26:58;97241.44;;;23.80;49.16
21817;BME280;13247;47.504;7.382;2023-05-29T10:29:52;97250.13;;;22.78;49.73
21817;BME280;13247;47.504;7.382;2023-05-29T10:33:00;97239.13;;;22.92;48.43
21817;BME280;13247;47.504;7.382;2023-05-29T10:36:07;97230.16;;;22.93;49.33
21817;BME280;13247;47.504;7.382;2023-05-29T10:38:54;97228.91;;;23.28;49.77
21817;BME280;13247;47.504;7.382;2023-05-29T10:41:39;97226.03;;;23.73;47.50
21817;BME280;13247;47.504;7.382;2023-05-29T10:47:23;97220.72;;;23.41;47.48
21817;BME280;13247;47.504;7.382;2023-05-29T10:50:10;97224.75;;;23.97;46.97
21817;BME280;13247;47.504;7.382;2023-05-29T10:52:54;97225.56;;;24.09;45.30
21817;BME280;13247;47.504;7.382;2023-05-29T10:55:40;97228.34;;;23.87;46.34
21817;BME280;13247;47.504;7.382;2023-05-29T10:58:26;97216.75;;;23.77;45.72
21817;BME280;13247;47.504;7.382;2023-05-29T11:01:12;97228.34;;;24.38;44.33
21817;BME280;13247;47.504;7.382;2023-05-29T11:07:06;97229.28;;;25.07;43.96
21817;BME280;13247;47.504;7.382;2023-05-29T11:09:53;97226.31;;;25.10;43.29
21817;BME280;13247;47.504;7.382;2023-05-29T11:12:56;97226.72;;;23.95;45.84
21817;BME280;13247;47.504;7.382;2023-05-29T11:15:42;97229.66;;;24.13;44.88
21817;BME280;13247;47.504;7.382;2023-05-29T11:18:27;97219.41;;;24.67;43.86
21817;BME280;13247;47.504;7.382;2023-05-29T11:24:22;97218.53;;;24.48;44.13
21817;BME280;13247;47.504;7.382;2023-05-29T11:27:08;97213.59;;;25.02;44.23
21817;BME280;13247;47.504;7.382;2023-05-29T11:29:54;97206.53;;;25.20;43.49
21817;BME280;13247;47.504;7.382;2023-05-29T11:32:40;97201.19;;;25.11;42.77
21817;BME280;13247;47.504;7.382;2023-05-29T11:35:29;97206.38;;;25.22;42.67
21817;BME280;13247;47.504;7.382;2023-05-29T11:38:16;97210.03;;;24.43;42.43
21817;BME280;13247;47.504;7.382;2023-05-29T11:41:02;97200.88;;;25.04;43.21
21817;BME280;13247;47.504;7.382;2023-05-29T11:44:01;97195.94;;;25.09;40.98
21817;BME280;13247;47.504;7.382;2023-05-29T11:49:46;97199.47;;;25.38;40.93
21817;BME280;13247;47.504;7.382;2023-05-29T11:52:32;97196.09;;;24.98;41.43
21817;BME280;13247;47.504;7.382;2023-05-29T11:55:22;97191.00;;;25.33;41.98
21817;BME280;13247;47.504;7.382;2023-05-29T11:58:07;97195.66;;;25.12;42.30
21817;BME280;13247;47.504;7.382;2023-05-29T12:00:52;97192.97;;;24.93;42.75
21817;BME280;13247;47.504;7.382;2023-05-29T12:03:41;97184.16;;;25.77;40.65
21817;BME280;13247;47.504;7.382;2023-05-29T12:06:36;97182.41;;;26.41;39.80
21817;BME280;13247;47.504;7.382;2023-05-29T12:09:29;97185.34;;;25.55;41.82
21817;BME280;13247;47.504;7.382;2023-05-29T12:12:14;97179.75;;;26.32;41.50
21817;BME280;13247;47.504;7.382;2023-05-29T12:14:59;97180.44;;;26.61;40.88
21817;BME280;13247;47.504;7.382;2023-05-29T12:17:45;97177.56;;;25.14;40.81
21817;BME280;13247;47.504;7.382;2023-05-29T12:20:30;97176.19;;;25.95;40.09
21817;BME280;13247;47.504;7.382;2023-05-29T12:23:15;97170.28;;;25.82;41.50
21817;BME280;13247;47.504;7.382;2023-05-29T12:26:03;97183.91;;;26.17;40.99
21817;BME280;13247;47.504;7.382;2023-05-29T12:28:50;97180.56;;;26.42;40.09
21817;BME280;13247;47.504;7.382;2023-05-29T12:31:34;97174.38;;;26.86;38.44
21817;BME280;13247;47.504;7.382;2023-05-29T12:34:19;97170.22;;;27.27;38.34
21817;BME280;13247;47.504;7.382;2023-05-29T12:37:07;97171.19;;;27.61;37.63
21817;BME280;13247;47.504;7.382;2023-05-29T12:40:23;97168.72;;;27.93;37.19
21817;BME280;13247;47.504;7.382;2023-05-29T12:43:07;97173.09;;;26.63;39.55
21817;BME280;13247;47.504;7.382;2023-05-29T12:45:56;97163.66;;;26.77;38.64
21817;BME280;13247;47.504;7.382;2023-05-29T12:48:41;97172.63;;;26.40;38.48
21817;BME280;13247;47.504;7.382;2023-05-29T12:51:26;97171.63;;;26.05;39.67
21817;BME280;13247;47.504;7.382;2023-05-29T12:54:13;97171.22;;;26.36;39.81
21817;BME280;13247;47.504;7.382;2023-05-29T12:56:58;97165.66;;;26.48;39.46
21817;BME280;13247;47.504;7.382;2023-05-29T12:59:45;97163.78;;;27.02;38.82
21817;BME280;13247;47.504;7.382;2023-05-29T13:02:30;97163.09;;;27.18;39.08
21817;BME280;13247;47.504;7.382;2023-05-29T13:05:15;97165.41;;;27.74;36.72
21817;BME280;13247;47.504;7.382;2023-05-29T13:08:00;97173.47;;;26.41;37.62
21817;BME280;13247;47.504;7.382;2023-05-29T13:10:45;97172.69;;;25.85;39.22
21817;BME280;13247;47.504;7.382;2023-05-29T13:13:30;97166.69;;;26.74;36.82
21817;BME280;13247;47.504;7.382;2023-05-29T13:16:14;97154.84;;;27.37;36.36
21817;BME280;13247;47.504;7.382;2023-05-29T13:18:59;97160.69;;;26.80;37.25
21817;BME280;13247;47.504;7.382;2023-05-29T13:21:44;97155.28;;;26.97;38.10
21817;BME280;13247;47.504;7.382;2023-05-29T13:24:32;97143.63;;;28.19;36.46
21817;BME280;13247;47.504;7.382;2023-05-29T13:27:17;97148.19;;;28.26;35.36
21817;BME280;13247;47.504;7.382;2023-05-29T13:30:03;97139.28;;;28.67;34.09
21817;BME280;13247;47.504;7.382;2023-05-29T13:32:49;97138.78;;;27.71;34.80
21817;BME280;13247;47.504;7.382;2023-05-29T13:35:35;97148.22;;;26.96;36.57
21817;BME280;13247;47.504;7.382;2023-05-29T13:38:19;97143.91;;;26.86;35.93
21817;BME280;13247;47.504;7.382;2023-05-29T13:41:04;97139.94;;;27.07;37.59
21817;BME280;13247;47.504;7.382;2023-05-29T13:43:51;97130.16;;;27.06;37.13
21817;BME280;13247;47.504;7.382;2023-05-29T13:46:37;97122.31;;;27.13;37.59
21817;BME280;13247;47.504;7.382;2023-05-29T13:49:21;97116.81;;;27.22;37.24
21817;BME280;13247;47.504;7.382;2023-05-29T13:52:06;97113.50;;;27.46;36.54
21817;BME280;13247;47.504;7.382;2023-05-29T13:54:51;97112.63;;;27.46;37.12
21817;BME280;13247;47.504;7.382;2023-05-29T13:57:36;97115.59;;;26.99;37.46
21817;BME280;13247;47.504;7.382;2023-05-29T14:00:21;97116.75;;;27.50;37.50
21817;BME280;13247;47.504;7.382;2023-05-29T14:03:06;97127.31;;;26.73;36.86
21817;BME280;13247;47.504;7.382;2023-05-29T14:05:53;97104.25;;;26.43;38.20
21817;BME280;13247;47.504;7.382;2023-05-29T14:08:37;97107.53;;;27.17;37.66
21817;BME280;13247;47.504;7.382;2023-05-29T14:11:22;97108.16;;;26.76;37.39
21817;BME280;13247;47.504;7.382;2023-05-29T14:14:07;97106.94;;;27.05;36.54
21817;BME280;13247;47.504;7.382;2023-05-29T14:16:52;97100.56;;;27.50;36.94
21817;BME280;13247;47.504;7.382;2023-05-29T14:19:38;97096.00;;;27.07;37.32
21817;BME280;13247;47.504;7.382;2023-05-29T14:22:23;97098.59;;;27.16;36.25
21817;BME280;13247;47.504;7.382;2023-05-29T14:25:08;97099.72;;;27.49;36.48
21817;BME280;13247;47.504;7.382;2023-05-29T14:27:52;97092.31;;;26.73;35.04
21817;BME280;13247;47.504;7.382;2023-05-29T14:30:37;97092.38;;;26.81;35.52
21817;BME280;13247;47.504;7.382;2023-05-29T14:33:22;97088.94;;;27.32;36.57
21817;BME280;13247;47.504;7.382;2023-05-29T14:36:07;97086.81;;;27.94;35.29
21817;BME280;13247;47.504;7.382;2023-05-29T14:38:52;97083.13;;;27.62;36.06
21817;BME280;13247;47.504;7.382;2023-05-29T14:41:37;97078.16;;;27.32;36.77
21817;BME280;13247;47.504;7.382;2023-05-29T14:44:21;97086.84;;;27.69;37.36
21817;BME280;13247;47.504;7.382;2023-05-29T14:47:06;97084.22;;;28.03;35.86
21817;BME280;13247;47.504;7.382;2023-05-29T14:49:50;97083.13;;;27.62;37.68
21817;BME280;13247;47.504;7.382;2023-05-29T14:52:35;97077.56;;;27.38;36.80